Terminal Aerodrome Forecast
Issued by NWS Charleston, SC

Home | Current Version | Previous Version | Text Only | Print | Product List | Glossary On
Versions: 1 2 3 4 5 6 7 8 9 10 11 12 13 14 15 16 17 18 19 20 21 22 23 24 25 26 27 28 29 30 31
000
FTUS42 KCHS 181500 AAB
TAFSAV
TAF AMD
KSAV 181559Z 1816/1912 VRB03KT P6SM SCT025 BKN060
      TEMPO 1816/1818 BKN025
     FM181800 10008KT P6SM SCT035 BKN200
     FM190000 VRB03KT P6SM SCT025 BKN150=

USA.gov is the U.S. government's official web portal to all federal, state and local government web resources and services.